Time;durP1;ratioP1;P1;durP2;ratioP2;P2;SDS_P1;SDS_P2;PMS_P1;PMS_P2;Temp;Humidity;BMP_temperature;BMP_pressure;BME280_temperature;BME280_humidity;BME280_pressure;Samples;Min_cycle;Max_cycle;Signal;HPM_P1;HPM_P2
2022/05/07 00:00:06;;;;;;;19.50;17.13;;;;;21.40;101198.00;;;;2077633;28;20205;-49
2022/05/07 00:01:07;;;;;;;19.30;17.35;;;;;21.40;101200.00;;;;2077977;28;20217;-46
2022/05/07 00:02:08;;;;;;;18.95;16.95;;;;;21.40;101191.00;;;;2077654;28;20300;-47
2022/05/07 00:03:08;;;;;;;24.53;18.80;;;;;21.40;101198.00;;;;2077815;28;20213;-47
2022/05/07 00:04:08;;;;;;;18.63;16.57;;;;;21.40;101190.00;;;;2077640;28;20220;-47
2022/05/07 00:05:09;;;;;;;18.50;16.60;;;;;21.40;101194.00;;;;2077907;28;20221;-47
2022/05/07 00:06:09;;;;;;;18.00;16.20;;;;;21.40;101191.00;;;;2077087;28;20252;-47
2022/05/07 00:07:09;;;;;;;17.57;15.77;;;;;21.30;101200.00;;;;2075667;28;20222;-48
2022/05/07 00:08:10;;;;;;;16.70;15.00;;;;;21.40;101187.00;;;;2069844;28;20218;-49
2022/05/07 00:09:10;;;;;;;18.33;16.47;;;;;21.40;101195.00;;;;2069812;28;20251;-49
2022/05/07 00:10:10;;;;;;;17.20;15.40;;;;;21.40;101192.00;;;;2069625;28;20218;-47
2022/05/07 00:11:15;;;;;;;19.40;16.97;;;;;21.30;101185.00;;;;2069830;28;20234;-47
2022/05/07 00:12:15;;;;;;;16.27;14.45;;;;;21.30;101183.00;;;;2069185;28;20268;-46
2022/05/07 00:13:15;;;;;;;16.93;15.13;;;;;21.40;101189.00;;;;2069908;28;20289;-46
2022/05/07 00:14:16;;;;;;;17.00;15.30;;;;;21.40;101184.00;;;;2069446;28;20229;-47
2022/05/07 00:15:16;;;;;;;16.63;15.00;;;;;21.30;101186.00;;;;2069586;28;20221;-48
2022/05/07 00:18:54;;;;;;;16.75;14.90;;;;;21.30;101181.00;;;;2072372;28;20221;-47
2022/05/07 00:19:54;;;;;;;17.20;15.07;;;;;21.30;101187.00;;;;2069430;28;20249;-47
2022/05/07 00:20:55;;;;;;;14.97;13.47;;;;;21.30;101185.00;;;;2069465;28;20214;-47
2022/05/07 00:21:55;;;;;;;15.77;14.17;;;;;21.30;101183.00;;;;2069229;28;20283;-46
2022/05/07 00:22:56;;;;;;;15.87;14.23;;;;;21.30;101180.00;;;;2085363;28;20299;-47
2022/05/07 00:23:57;;;;;;;15.88;14.27;;;;;21.30;101183.00;;;;2079065;28;20213;-47
2022/05/07 00:24:57;;;;;;;14.93;13.53;;;;;21.30;101142.00;;;;2074037;28;20221;-47
2022/05/07 00:25:58;;;;;;;16.47;14.80;;;;;21.30;101181.00;;;;2069026;28;20832;-46
2022/05/07 00:26:58;;;;;;;15.73;14.03;;;;;21.30;101181.00;;;;2069275;28;20611;-48
2022/05/07 00:27:59;;;;;;;15.20;13.60;;;;;21.30;101179.00;;;;2069679;28;20210;-47
2022/05/07 00:28:59;;;;;;;15.43;13.93;;;;;21.30;101177.00;;;;2069056;28;20218;-48
2022/05/07 00:29:59;;;;;;;14.70;13.20;;;;;21.30;101182.00;;;;2069513;28;20218;-49
2022/05/07 00:31:00;;;;;;;15.93;14.13;;;;;21.30;101176.00;;;;2069490;28;20248;-48
2022/05/07 00:32:00;;;;;;;15.20;13.70;;;;;21.30;101179.00;;;;2069738;28;20217;-48
2022/05/07 00:33:00;;;;;;;14.57;13.07;;;;;21.30;101175.00;;;;2070204;28;20279;-48
2022/05/07 00:34:01;;;;;;;15.23;13.40;;;;;21.30;101175.00;;;;2070092;28;20214;-48
2022/05/07 00:35:01;;;;;;;14.50;13.10;;;;;21.30;101178.00;;;;2070167;28;20590;-47
2022/05/07 00:36:01;;;;;;;15.90;13.50;;;;;21.30;101174.00;;;;2069335;28;20210;-48
2022/05/07 00:37:02;;;;;;;13.90;12.60;;;;;21.30;101172.00;;;;2068924;28;20308;-47
2022/05/07 00:38:02;;;;;;;14.47;13.07;;;;;21.30;101169.00;;;;2070219;28;20232;-48
2022/05/07 00:39:03;;;;;;;15.63;14.13;;;;;21.30;101165.00;;;;2070238;28;20223;-48
2022/05/07 00:40:04;;;;;;;14.00;12.60;;;;;21.30;101170.00;;;;2069740;28;20214;-47
2022/05/07 00:41:05;;;;;;;14.48;13.10;;;;;21.30;101177.00;;;;2070172;28;20245;-49
2022/05/07 00:42:06;;;;;;;13.50;12.10;;;;;21.20;101172.00;;;;2070016;28;20765;-48
2022/05/07 00:43:06;;;;;;;13.10;11.80;;;;;21.30;101168.00;;;;2068662;28;20245;-48
2022/05/07 00:44:06;;;;;;;13.93;12.50;;;;;21.30;101170.00;;;;2070146;28;20445;-48
2022/05/07 00:45:07;;;;;;;13.97;12.67;;;;;21.20;101169.00;;;;2070242;28;20357;-48
2022/05/07 00:46:08;;;;;;;14.37;13.07;;;;;21.20;101172.00;;;;2069671;28;20289;-51
2022/05/07 00:47:15;;;;;;;13.23;12.03;;;;;21.20;101171.00;;;;2069062;28;20461;-48
2022/05/07 00:48:15;;;;;;;14.82;13.43;;;;;21.20;101178.00;;;;2069658;28;22313;-48
2022/05/07 00:49:16;;;;;;;13.73;12.47;;;;;21.20;101176.00;;;;2070199;28;20229;-48
2022/05/07 00:51:35;;;;;;;12.68;11.38;;;;;21.20;101175.00;;;;2072580;28;20210;-48
2022/05/07 00:52:35;;;;;;;13.10;11.80;;;;;21.20;101168.00;;;;2071782;28;20211;-49
2022/05/07 00:53:36;;;;;;;12.50;11.30;;;;;21.20;101168.00;;;;2071118;28;20221;-48
2022/05/07 00:54:37;;;;;;;12.20;10.97;;;;;21.20;101171.00;;;;2071105;28;20237;-48
2022/05/07 00:55:37;;;;;;;12.40;11.20;;;;;21.20;101173.00;;;;2070864;28;20275;-48
2022/05/07 00:56:38;;;;;;;13.40;12.20;;;;;21.20;101171.00;;;;2071659;28;20460;-46
2022/05/07 00:57:39;;;;;;;12.70;11.47;;;;;21.20;101168.00;;;;2071597;28;20210;-47
2022/05/07 00:58:39;;;;;;;11.30;10.30;;;;;21.20;101166.00;;;;2070776;28;21066;-49
2022/05/07 00:59:39;;;;;;;13.00;11.63;;;;;21.20;101171.00;;;;2070974;28;20234;-48
2022/05/07 01:00:40;;;;;;;11.93;10.73;;;;;21.20;101169.00;;;;2071723;28;20222;-49
2022/05/07 01:01:40;;;;;;;12.57;11.37;;;;;21.20;101175.00;;;;2071889;28;20228;-48
2022/05/07 01:02:41;;;;;;;11.93;10.83;;;;;21.20;101169.00;;;;2071736;28;20589;-47
2022/05/07 01:03:41;;;;;;;12.20;11.00;;;;;21.20;101161.00;;;;2071803;28;20214;-48
2022/05/07 01:04:42;;;;;;;11.73;10.63;;;;;21.20;101164.00;;;;2071610;28;20637;-48
2022/05/07 01:05:44;;;;;;;13.63;12.07;;;;;21.20;101161.00;;;;2070337;28;20214;-48
2022/05/07 01:06:44;;;;;;;13.05;11.82;;;;;21.20;101170.00;;;;2070801;28;20304;-47
2022/05/07 01:07:45;;;;;;;12.27;11.00;;;;;21.20;101166.00;;;;2070774;28;20222;-49
2022/05/07 01:08:47;;;;;;;13.27;12.13;;;;;21.20;101168.00;;;;2070754;28;20218;-48
2022/05/07 01:09:48;;;;;;;11.90;10.75;;;;;21.20;101161.00;;;;2070898;28;20268;-48
2022/05/07 01:10:48;;;;;;;12.47;11.37;;;;;21.20;101164.00;;;;2070730;28;20248;-48
2022/05/07 01:11:49;;;;;;;12.30;11.20;;;;;21.20;101164.00;;;;2070953;28;20226;-49
2022/05/07 01:12:49;;;;;;;12.60;11.50;;;;;21.20;101157.00;;;;2062595;28;20269;-46
2022/05/07 01:13:49;;;;;;;12.97;11.77;;;;;21.20;101142.00;;;;2054913;28;20223;-48
2022/05/07 01:14:50;;;;;;;11.27;10.23;;;;;21.20;101157.00;;;;2069114;28;20276;-49
2022/05/07 01:15:53;;;;;;;11.70;10.60;;;;;21.20;101087.00;;;;2069960;28;20309;-48
2022/05/07 01:16:54;;;;;;;11.13;10.13;;;;;21.20;101154.00;;;;2071166;28;20222;-48
2022/05/07 01:17:54;;;;;;;11.10;10.10;;;;;21.20;101155.00;;;;2071660;28;20222;-48
2022/05/07 01:18:55;;;;;;;10.40;9.50;;;;;21.20;101159.00;;;;2071645;28;20214;-49
2022/05/07 01:19:55;;;;;;;11.30;10.20;;;;;21.20;101152.00;;;;2070356;28;20293;-48
2022/05/07 01:20:57;;;;;;;11.33;10.33;;;;;21.20;101154.00;;;;2070995;28;20221;-48
2022/05/07 01:21:57;;;;;;;11.73;10.63;;;;;21.20;101159.00;;;;2074559;28;20363;-46
2022/05/07 01:22:59;;;;;;;12.20;11.00;;;;;21.20;101153.00;;;;2079141;28;20221;-50
2022/05/07 01:24:02;;;;;;;11.43;10.30;;;;;21.20;101146.00;;;;2079346;28;20219;-45
2022/05/07 01:25:02;;;;;;;11.40;10.40;;;;;21.20;101141.00;;;;2070985;28;20238;-47
2022/05/07 01:26:03;;;;;;;10.43;9.50;;;;;21.20;101146.00;;;;2070580;28;20229;-48
2022/05/07 01:27:03;;;;;;;11.53;10.47;;;;;21.10;101143.00;;;;2071072;28;20321;-47
2022/05/07 01:28:04;;;;;;;11.10;10.10;;;;;21.10;101148.00;;;;2071391;28;20233;-47
2022/05/07 01:29:04;;;;;;;11.27;10.20;;;;;21.10;101141.00;;;;2076643;28;20224;-47
2022/05/07 01:30:06;;;;;;;11.10;10.10;;;;;21.10;101138.00;;;;2079424;28;20510;-47
2022/05/07 01:31:06;;;;;;;10.85;9.85;;;;;21.20;101154.00;;;;2079241;28;20217;-49
2022/05/07 01:32:06;;;;;;;11.60;10.50;;;;;21.20;101146.00;;;;2071511;28;20214;-47
2022/05/07 01:33:07;;;;;;;10.90;10.00;;;;;21.10;101139.00;;;;2071328;28;20213;-46
2022/05/07 01:34:07;;;;;;;11.77;10.77;;;;;21.20;101146.00;;;;2071466;28;20596;-45
2022/05/07 01:35:07;;;;;;;10.97;9.83;;;;;21.10;101141.00;;;;2071385;28;20810;-45
2022/05/07 01:36:11;;;;;;;11.50;10.40;;;;;21.10;101147.00;;;;2077963;28;20299;-47
2022/05/07 01:37:11;;;;;;;11.13;10.05;;;;;21.10;101146.00;;;;2071267;28;20249;-46
2022/05/07 01:38:11;;;;;;;10.37;9.37;;;;;21.10;101142.00;;;;2071253;28;20293;-46
2022/05/07 01:39:12;;;;;;;10.10;9.20;;;;;21.10;101142.00;;;;2074674;28;20216;-46
2022/05/07 01:40:12;;;;;;;11.27;10.17;;;;;21.10;101148.00;;;;2079637;28;20202;-45
2022/05/07 01:41:12;;;;;;;10.50;9.70;;;;;21.10;101146.00;;;;2075100;28;20305;-47
2022/05/07 01:42:13;;;;;;;10.60;9.70;;;;;21.10;101137.00;;;;2078829;28;20201;-47
2022/05/07 01:43:13;;;;;;;10.20;9.30;;;;;21.10;101137.00;;;;2079623;28;20236;-46
2022/05/07 01:44:14;;;;;;;11.23;10.23;;;;;21.10;101133.00;;;;2079391;28;20218;-46
2022/05/07 01:45:14;;;;;;;10.53;9.47;;;;;21.10;101139.00;;;;2079644;28;20216;-46
2022/05/07 01:48:56;;;;;;;10.27;9.38;;;;;21.10;101143.00;;;;2080576;28;20229;-45
2022/05/07 01:49:56;;;;;;;10.70;9.70;;;;;21.10;101140.00;;;;2076778;28;20218;-47
2022/05/07 01:50:57;;;;;;;10.40;9.50;;;;;21.10;101134.00;;;;2071505;28;20214;-46
2022/05/07 01:51:57;;;;;;;10.40;9.50;;;;;21.10;101135.00;;;;2070591;28;20268;-48
2022/05/07 01:52:57;;;;;;;8.93;8.13;;;;;21.10;101133.00;;;;2070467;28;20226;-48
2022/05/07 01:53:58;;;;;;;10.50;9.50;;;;;21.10;101132.00;;;;2070169;28;20213;-49
2022/05/07 01:54:58;;;;;;;10.50;9.50;;;;;21.00;101133.00;;;;2070905;28;20252;-47
2022/05/07 01:55:58;;;;;;;10.10;9.27;;;;;21.10;101139.00;;;;2070180;28;20221;-46
2022/05/07 01:56:59;;;;;;;9.53;8.73;;;;;21.10;101135.00;;;;2070403;28;20206;-45
2022/05/07 01:57:59;;;;;;;10.43;9.53;;;;;21.10;101129.00;;;;2071381;28;20210;-45
2022/05/07 01:58:59;;;;;;;10.13;9.23;;;;;21.10;101139.00;;;;2078500;28;20213;-48
2022/05/07 02:00:00;;;;;;;11.03;10.03;;;;;21.10;101134.00;;;;2079397;28;20216;-47
2022/05/07 02:01:00;;;;;;;10.70;9.70;;;;;21.10;101130.00;;;;2079448;28;20209;-47
2022/05/07 02:02:00;;;;;;;9.87;9.00;;;;;21.10;101131.00;;;;2077801;28;20236;-46
2022/05/07 02:03:01;;;;;;;10.80;9.90;;;;;21.10;101126.00;;;;2078542;28;20221;-45
2022/05/07 02:04:01;;;;;;;10.60;9.60;;;;;21.10;101129.00;;;;2074488;28;20272;-46
2022/05/07 02:05:02;;;;;;;10.40;9.40;;;;;21.10;101136.00;;;;2070618;28;20257;-45
2022/05/07 02:06:02;;;;;;;9.43;8.63;;;;;21.10;101131.00;;;;2069463;28;20218;-48
2022/05/07 02:07:02;;;;;;;9.17;8.33;;;;;21.10;101123.00;;;;2070563;28;20585;-47
2022/05/07 02:08:03;;;;;;;9.70;8.90;;;;;21.00;101131.00;;;;2078622;28;20217;-45
2022/05/07 02:09:04;;;;;;;9.63;8.80;;;;;21.10;101126.00;;;;2072136;28;20214;-45
2022/05/07 02:10:04;;;;;;;10.10;9.20;;;;;21.10;101131.00;;;;2079558;28;20658;-44
2022/05/07 02:11:05;;;;;;;9.93;9.03;;;;;21.10;101128.00;;;;2078867;28;20217;-46
2022/05/07 02:12:05;;;;;;;9.83;9.03;;;;;21.10;101131.00;;;;2079178;28;20740;-45
2022/05/07 02:13:05;;;;;;;10.00;9.10;;;;;21.10;101126.00;;;;2079219;28;20221;-47
2022/05/07 02:14:06;;;;;;;9.73;8.90;;;;;21.00;101130.00;;;;2079353;28;20571;-46
2022/05/07 02:15:06;;;;;;;9.77;8.80;;;;;21.00;101122.00;;;;2079379;28;20217;-45
2022/05/07 02:16:07;;;;;;;9.83;8.83;;;;;21.00;101126.00;;;;2077889;28;20291;-47
2022/05/07 02:17:07;;;;;;;8.60;7.90;;;;;21.00;101126.00;;;;2074159;28;20713;-45
2022/05/07 02:18:07;;;;;;;9.80;9.00;;;;;21.00;101119.00;;;;2071057;28;20214;-46
2022/05/07 02:19:08;;;;;;;9.40;8.60;;;;;21.00;101124.00;;;;2071145;28;20206;-48
2022/05/07 02:20:08;;;;;;;9.50;8.70;;;;;21.00;101126.00;;;;2071048;28;20281;-46
2022/05/07 02:21:09;;;;;;;10.17;9.27;;;;;21.00;101127.00;;;;2075050;28;20217;-48
2022/05/07 02:22:09;;;;;;;9.60;8.80;;;;;21.10;101122.00;;;;2079215;28;20220;-47
2022/05/07 02:23:10;;;;;;;8.90;8.20;;;;;21.00;101120.00;;;;2079180;28;20216;-46
2022/05/07 02:24:10;;;;;;;9.93;8.97;;;;;21.00;101121.00;;;;2078524;28;20229;-47
2022/05/07 02:25:10;;;;;;;9.80;8.90;;;;;21.10;101117.00;;;;2078506;28;20224;-46
2022/05/07 02:26:11;;;;;;;9.57;8.67;;;;;21.10;101120.00;;;;2078408;28;20213;-45
2022/05/07 02:27:11;;;;;;;9.40;8.60;;;;;21.00;101123.00;;;;2078943;28;20674;-47
2022/05/07 02:28:11;;;;;;;9.33;8.63;;;;;21.00;101120.00;;;;2079257;28;20218;-46
2022/05/07 02:29:14;;;;;;;9.47;8.57;;;;;21.00;101129.00;;;;2079103;28;20229;-46
2022/05/07 02:30:14;;;;;;;9.23;8.43;;;;;21.00;101116.00;;;;2071645;28;20255;-47
2022/05/07 02:31:15;;;;;;;10.10;9.20;;;;;21.00;101120.00;;;;2079165;28;20678;-47
2022/05/07 02:32:15;;;;;;;9.63;8.80;;;;;21.00;101125.00;;;;2079181;28;20584;-46
2022/05/07 02:33:16;;;;;;;9.13;8.33;;;;;21.00;101122.00;;;;2075160;28;20272;-47
2022/05/07 02:34:16;;;;;;;8.32;7.63;;;;;21.00;101124.00;;;;2074806;28;20219;-47
2022/05/07 02:35:17;;;;;;;8.70;8.00;;;;;21.00;101124.00;;;;2070947;28;20242;-49
2022/05/07 02:36:17;;;;;;;10.60;9.60;;;;;21.00;101123.00;;;;2070608;28;20222;-49
2022/05/07 02:37:17;;;;;;;9.60;8.70;;;;;21.00;101115.00;;;;2074014;28;20231;-49
2022/05/07 02:38:18;;;;;;;9.93;9.03;;;;;21.00;101126.00;;;;2073730;28;20214;-48
2022/05/07 02:39:18;;;;;;;8.90;8.10;;;;;21.00;101118.00;;;;2078740;28;20221;-47
2022/05/07 02:40:19;;;;;;;9.03;8.23;;;;;21.00;101124.00;;;;2078070;28;20261;-46
2022/05/07 02:42:39;;;;;;;9.88;9.05;;;;;21.00;101119.00;;;;2076550;28;20217;-49
2022/05/07 02:43:39;;;;;;;9.75;8.88;;;;;21.00;101117.00;;;;2071137;28;20221;-46
2022/05/07 02:44:40;;;;;;;8.93;8.13;;;;;21.00;101129.00;;;;2070626;28;20236;-48
2022/05/07 02:45:40;;;;;;;8.77;7.97;;;;;21.00;101124.00;;;;2069719;28;20218;-47
2022/05/07 02:46:41;;;;;;;8.90;8.10;;;;;21.00;101125.00;;;;2073230;28;20232;-46
2022/05/07 02:47:41;;;;;;;9.00;8.20;;;;;21.00;101129.00;;;;2070104;28;20238;-47
2022/05/07 02:48:44;;;;;;;9.27;8.47;;;;;21.00;101129.00;;;;2070359;28;20316;-45
2022/05/07 02:49:44;;;;;;;8.40;7.70;;;;;21.00;101120.00;;;;2070420;28;20218;-47
2022/05/07 02:50:45;;;;;;;9.87;8.90;;;;;21.00;101125.00;;;;2077176;28;20213;-46
2022/05/07 02:51:45;;;;;;;9.60;8.80;;;;;21.00;101124.00;;;;2078486;28;20221;-47
2022/05/07 02:52:45;;;;;;;9.60;8.80;;;;;21.00;101119.00;;;;2079058;28;20244;-46
2022/05/07 02:53:47;;;;;;;9.27;8.57;;;;;21.00;101126.00;;;;2078880;28;20228;-46
2022/05/07 02:54:47;;;;;;;8.80;8.10;;;;;21.00;101102.00;;;;2079225;28;20306;-46
2022/05/07 02:55:47;;;;;;;9.10;8.40;;;;;21.00;101121.00;;;;2076962;28;20603;-50
2022/05/07 02:56:48;;;;;;;8.77;7.97;;;;;21.00;101128.00;;;;2078212;28;20213;-49
2022/05/07 02:57:48;;;;;;;9.13;8.43;;;;;21.00;101118.00;;;;2077391;28;20416;-49
2022/05/07 02:58:48;;;;;;;9.17;8.47;;;;;21.00;101122.00;;;;2078519;28;20221;-49
2022/05/07 02:59:49;;;;;;;9.00;8.30;;;;;21.00;101122.00;;;;2079022;28;20236;-47
2022/05/07 03:00:49;;;;;;;8.63;7.93;;;;;21.00;101128.00;;;;2078931;28;20210;-48
2022/05/07 03:01:50;;;;;;;9.83;9.03;;;;;21.00;101125.00;;;;2078281;28;20217;-46
2022/05/07 03:02:50;;;;;;;8.60;7.80;;;;;21.00;101125.00;;;;2078039;28;20958;-46
2022/05/07 03:03:51;;;;;;;8.77;7.97;;;;;21.00;101124.00;;;;2078830;28;20247;-46
2022/05/07 03:04:51;;;;;;;7.67;7.07;;;;;21.00;101125.00;;;;2074568;28;20218;-48
2022/05/07 03:05:54;;;;;;;8.30;7.60;;;;;21.00;101125.00;;;;2070027;28;20245;-48
2022/05/07 03:06:54;;;;;;;9.13;8.32;;;;;21.00;101125.00;;;;2070594;28;20260;-46
2022/05/07 03:07:58;;;;;;;8.00;7.33;;;;;21.00;101124.00;;;;2070347;28;20616;-46
2022/05/07 03:08:58;;;;;;;8.30;7.60;;;;;21.00;101119.00;;;;2074642;28;20221;-48
2022/05/07 03:09:58;;;;;;;8.60;7.80;;;;;21.00;101122.00;;;;2078937;28;20720;-46
2022/05/07 03:10:59;;;;;;;9.37;8.33;;;;;21.00;101121.00;;;;2078950;28;20698;-46
2022/05/07 03:11:59;;;;;;;8.97;8.20;;;;;20.90;101122.00;;;;2078788;28;21000;-49
2022/05/07 03:12:59;;;;;;;8.07;7.47;;;;;20.90;101127.00;;;;2078857;28;20217;-47
2022/05/07 03:14:03;;;;;;;9.07;8.27;;;;;21.00;101125.00;;;;2078136;28;20198;-47
2022/05/07 03:15:04;;;;;;;8.90;8.18;;;;;21.00;101113.00;;;;2078533;28;20751;-49
2022/05/07 03:16:06;;;;;;;8.47;7.77;;;;;21.00;101122.00;;;;2078124;28;20263;-46
2022/05/07 03:17:06;;;;;;;8.85;8.02;;;;;21.00;101121.00;;;;2078537;28;20523;-46
2022/05/07 03:18:07;;;;;;;9.17;8.37;;;;;21.00;101126.00;;;;2078773;28;20214;-47
2022/05/07 03:19:07;;;;;;;8.50;7.70;;;;;21.00;101121.00;;;;2078490;28;20213;-46
2022/05/07 03:20:11;;;;;;;8.70;8.00;;;;;21.00;101121.00;;;;2078709;28;20596;-47
2022/05/07 03:21:11;;;;;;;8.90;8.10;;;;;20.90;101062.00;;;;2077630;28;20221;-47
2022/05/07 03:22:12;;;;;;;8.80;8.10;;;;;20.90;101084.00;;;;2061032;28;20751;-48
2022/05/07 03:23:13;;;;;;;8.77;8.00;;;;;20.90;101118.00;;;;2078162;28;20587;-49
2022/05/07 03:24:13;;;;;;;9.90;9.00;;;;;20.90;101121.00;;;;2078344;28;20516;-47
2022/05/07 03:25:13;;;;;;;8.87;8.10;;;;;20.90;101113.00;;;;2078360;28;20447;-46
2022/05/07 03:26:14;;;;;;;8.73;7.93;;;;;20.90;101121.00;;;;2078146;28;20216;-46
2022/05/07 03:27:14;;;;;;;8.90;8.17;;;;;20.90;101133.00;;;;2078698;28;20213;-46
2022/05/07 03:28:14;;;;;;;8.40;7.70;;;;;20.90;101116.00;;;;2078540;28;20293;-49
2022/05/07 03:29:15;;;;;;;8.80;7.90;;;;;20.90;101119.00;;;;2073941;28;20296;-47
2022/05/07 03:30:15;;;;;;;9.53;8.63;;;;;20.90;101121.00;;;;2070318;28;20214;-46
2022/05/07 03:31:18;;;;;;;8.80;8.10;;;;;20.90;101120.00;;;;2077328;28;20224;-47
2022/05/07 03:32:19;;;;;;;7.70;7.07;;;;;20.90;101117.00;;;;2078612;28;20233;-49
2022/05/07 03:33:19;;;;;;;8.53;7.83;;;;;20.90;101123.00;;;;2078106;28;20217;-47
2022/05/07 03:34:19;;;;;;;8.23;7.53;;;;;20.90;101114.00;;;;2077982;28;20657;-46
2022/05/07 03:35:20;;;;;;;8.83;8.13;;;;;20.90;101110.00;;;;2077777;28;20214;-47
2022/05/07 03:36:20;;;;;;;8.70;7.97;;;;;20.90;101123.00;;;;2078465;28;20209;-46
2022/05/07 03:37:20;;;;;;;8.70;8.00;;;;;20.90;101121.00;;;;2077819;28;20214;-46
2022/05/07 03:38:22;;;;;;;8.00;7.40;;;;;20.90;101114.00;;;;2078455;28;20260;-46
2022/05/07 03:39:23;;;;;;;8.13;7.43;;;;;20.90;101118.00;;;;2078788;28;20213;-46
2022/05/07 03:40:24;;;;;;;8.80;8.10;;;;;20.90;101119.00;;;;2078511;28;20240;-46
2022/05/07 03:41:24;;;;;;;9.20;8.37;;;;;20.90;101118.00;;;;2078724;28;20213;-47
2022/05/07 03:42:27;;;;;;;8.40;7.60;;;;;20.90;101112.00;;;;2078647;28;20638;-46
2022/05/07 03:43:28;;;;;;;8.40;7.70;;;;;20.90;101121.00;;;;2078577;28;20227;-48
2022/05/07 03:44:28;;;;;;;8.57;7.80;;;;;20.90;101119.00;;;;2078144;28;20220;-47
2022/05/07 03:45:32;;;;;;;8.97;8.23;;;;;20.90;101109.00;;;;2077984;28;20212;-47
2022/05/07 03:46:33;;;;;;;9.32;8.52;;;;;20.90;101114.00;;;;2078570;28;20292;-47
2022/05/07 03:47:33;;;;;;;7.80;7.10;;;;;20.90;101119.00;;;;2078269;28;20217;-49
2022/05/07 03:48:34;;;;;;;8.70;8.00;;;;;20.90;101121.00;;;;2078748;28;20745;-49
2022/05/07 03:49:34;;;;;;;9.73;8.93;;;;;20.90;101118.00;;;;2078524;28;20582;-47
2022/05/07 03:50:34;;;;;;;8.60;7.80;;;;;20.90;101119.00;;;;2078558;28;20210;-47
2022/05/07 03:53:29;;;;;;;8.50;7.70;;;;;20.90;101117.00;;;;2078239;28;20225;-46
2022/05/07 03:54:14;;;;;;;8.20;7.40;;;;;20.90;101125.00;;;;2078151;28;20280;-47
2022/05/07 03:55:14;;;;;;;8.77;8.07;;;;;20.90;101121.00;;;;2078546;28;20210;-47
2022/05/07 03:56:15;;;;;;;8.70;8.00;;;;;20.90;101123.00;;;;2077957;28;20228;-47
2022/05/07 03:57:16;;;;;;;8.40;7.70;;;;;20.90;101122.00;;;;2078279;28;20209;-47
2022/05/07 03:58:17;;;;;;;8.63;7.93;;;;;20.90;101110.00;;;;2077801;28;20607;-47
2022/05/07 03:59:17;;;;;;;9.02;8.32;;;;;20.90;101116.00;;;;2077709;28;20221;-47
2022/05/07 04:00:18;;;;;;;8.67;7.63;;;;;20.90;101117.00;;;;2078636;28;20236;-49
2022/05/07 04:01:19;;;;;;;8.70;8.00;;;;;20.90;101113.00;;;;2078559;28;20213;-49
2022/05/07 04:02:19;;;;;;;8.10;7.40;;;;;20.90;101119.00;;;;2077790;28;20244;-47
2022/05/07 04:03:20;;;;;;;8.50;7.80;;;;;20.90;101119.00;;;;2077861;28;20883;-47
2022/05/07 04:04:21;;;;;;;7.80;7.20;;;;;20.90;101121.00;;;;2078388;28;20633;-48
2022/05/07 04:05:21;;;;;;;9.00;8.20;;;;;20.90;101125.00;;;;2075222;28;20690;-46
2022/05/07 04:06:21;;;;;;;8.70;8.00;;;;;20.90;101120.00;;;;2069500;28;20799;-46
2022/05/07 04:07:22;;;;;;;8.10;7.40;;;;;20.90;101123.00;;;;2069858;28;20360;-47
2022/05/07 04:08:23;;;;;;;8.50;7.80;;;;;20.90;101123.00;;;;2070214;28;20599;-47
2022/05/07 04:09:23;;;;;;;9.15;8.27;;;;;20.90;101124.00;;;;2070565;28;20218;-46
2022/05/07 04:10:24;;;;;;;8.30;7.60;;;;;20.90;101128.00;;;;2077025;28;20620;-46
2022/05/07 04:11:24;;;;;;;8.17;7.47;;;;;20.90;101129.00;;;;2078584;28;20717;-46
2022/05/07 04:12:25;;;;;;;7.90;7.30;;;;;20.90;101126.00;;;;2069599;28;21088;-47
2022/05/07 04:13:25;;;;;;;8.00;7.30;;;;;20.90;101121.00;;;;2069603;28;20281;-47
2022/05/07 04:14:25;;;;;;;8.50;7.80;;;;;20.90;101123.00;;;;2069424;28;20210;-46
2022/05/07 04:15:26;;;;;;;8.87;8.07;;;;;20.90;101133.00;;;;2069653;28;20679;-45
2022/05/07 04:16:26;;;;;;;8.70;7.93;;;;;20.80;101127.00;;;;2074586;28;20776;-46
2022/05/07 04:17:27;;;;;;;7.47;6.87;;;;;20.90;101117.00;;;;2078399;28;20701;-46
2022/05/07 04:18:27;;;;;;;9.37;8.57;;;;;20.90;101123.00;;;;2078311;28;20220;-48
2022/05/07 04:19:27;;;;;;;8.20;7.60;;;;;20.90;101120.00;;;;2078487;28;20646;-47
2022/05/07 04:20:28;;;;;;;8.30;7.60;;;;;20.90;101113.00;;;;2074630;28;20210;-48
2022/05/07 04:21:28;;;;;;;9.00;8.20;;;;;20.90;101121.00;;;;2070319;28;20288;-46
2022/05/07 04:22:31;;;;;;;8.90;8.13;;;;;20.80;101117.00;;;;2069386;28;20214;-47
2022/05/07 04:23:32;;;;;;;8.80;8.10;;;;;20.80;101124.00;;;;2070121;28;20228;-51
2022/05/07 04:24:36;;;;;;;8.23;7.43;;;;;20.80;101127.00;;;;2070337;28;20229;-50
2022/05/07 04:25:38;;;;;;;8.13;7.35;;;;;20.80;101124.00;;;;2069529;28;21136;-46
2022/05/07 04:26:38;;;;;;;8.80;8.00;;;;;20.80;101124.00;;;;2069743;28;20305;-46
2022/05/07 04:27:39;;;;;;;8.47;7.67;;;;;20.80;101121.00;;;;2070195;28;20706;-46
2022/05/07 04:28:40;;;;;;;7.97;7.27;;;;;20.80;101120.00;;;;2069521;28;20210;-47
2022/05/07 04:29:40;;;;;;;7.95;7.25;;;;;20.80;101119.00;;;;2070395;28;20229;-47
2022/05/07 04:30:40;;;;;;;7.67;7.07;;;;;20.80;101114.00;;;;2070316;28;20245;-46
2022/05/07 04:31:41;;;;;;;9.03;8.13;;;;;20.90;101118.00;;;;2070015;28;20302;-46
2022/05/07 04:32:41;;;;;;;8.50;7.80;;;;;20.80;101124.00;;;;2070324;28;20260;-46
2022/05/07 04:33:41;;;;;;;7.20;6.60;;;;;20.90;101131.00;;;;2070342;28;20210;-46
2022/05/07 04:34:42;;;;;;;8.27;7.57;;;;;20.80;101125.00;;;;2070211;28;20245;-49
2022/05/07 04:35:42;;;;;;;8.50;7.80;;;;;20.80;101118.00;;;;2069805;28;20741;-46
2022/05/07 04:36:43;;;;;;;8.43;7.73;;;;;20.80;101120.00;;;;2070151;28;20214;-47
2022/05/07 04:37:43;;;;;;;8.43;7.73;;;;;20.80;101121.00;;;;2070312;28;20217;-46
2022/05/07 04:38:43;;;;;;;7.60;7.00;;;;;20.80;101121.00;;;;2070210;28;20210;-46
2022/05/07 04:39:44;;;;;;;8.30;7.60;;;;;20.80;101118.00;;;;2070396;28;20214;-47
2022/05/07 04:40:44;;;;;;;8.43;7.57;;;;;20.80;101130.00;;;;2070049;28;20217;-46
2022/05/07 04:41:44;;;;;;;8.17;7.47;;;;;20.80;101123.00;;;;2070259;28;20229;-49
2022/05/07 04:42:45;;;;;;;8.30;7.60;;;;;20.80;101121.00;;;;2070395;28;20217;-48
2022/05/07 04:43:45;;;;;;;7.97;7.23;;;;;20.80;101127.00;;;;2070424;28;20222;-47
2022/05/07 04:44:46;;;;;;;8.73;8.03;;;;;20.80;101129.00;;;;2074149;28;20324;-47
2022/05/07 04:45:47;;;;;;;8.87;8.07;;;;;20.80;101124.00;;;;2077674;28;20299;-45
2022/05/07 04:46:47;;;;;;;7.80;7.10;;;;;20.80;101127.00;;;;2078331;28;20217;-47
2022/05/07 04:47:47;;;;;;;8.37;7.67;;;;;20.80;101129.00;;;;2077606;28;20453;-47
2022/05/07 04:48:48;;;;;;;8.43;7.73;;;;;20.80;101129.00;;;;2078178;28;20218;-46
2022/05/07 04:49:48;;;;;;;7.90;7.30;;;;;20.80;101126.00;;;;2078291;28;20228;-46
2022/05/07 04:50:48;;;;;;;7.53;6.93;;;;;20.80;101133.00;;;;2076296;28;20225;-46
2022/05/07 04:51:50;;;;;;;9.10;8.20;;;;;20.80;101131.00;;;;2069562;28;20245;-48
2022/05/07 04:52:50;;;;;;;8.30;7.60;;;;;20.80;101126.00;;;;2073224;28;20279;-47
2022/05/07 04:53:51;;;;;;;8.70;8.00;;;;;20.80;101129.00;;;;2078437;28;20217;-48
2022/05/07 04:54:51;;;;;;;7.47;6.87;;;;;20.80;101131.00;;;;2076473;28;20228;-47
2022/05/07 04:55:52;;;;;;;9.03;8.23;;;;;20.80;101135.00;;;;2077583;28;20218;-46
2022/05/07 04:56:52;;;;;;;8.77;7.97;;;;;20.80;101134.00;;;;2077992;28;20217;-46
2022/05/07 04:57:53;;;;;;;8.77;8.07;;;;;20.80;101141.00;;;;2078187;28;20298;-47
2022/05/07 04:58:53;;;;;;;7.80;7.20;;;;;20.80;101134.00;;;;2077639;28;20259;-46
2022/05/07 04:59:54;;;;;;;7.57;6.97;;;;;20.80;101138.00;;;;2077312;28;20249;-49
2022/05/07 05:00:54;;;;;;;8.90;8.10;;;;;20.80;101128.00;;;;2078160;28;20246;-46
2022/05/07 05:01:55;;;;;;;9.10;8.30;;;;;20.80;101138.00;;;;2078222;28;20210;-47
2022/05/07 05:02:55;;;;;;;7.90;7.20;;;;;20.80;101137.00;;;;2078336;28;20218;-47
2022/05/07 05:03:55;;;;;;;8.10;7.30;;;;;20.80;101143.00;;;;2078233;28;20228;-46
2022/05/07 05:04:56;;;;;;;9.07;8.27;;;;;20.80;101134.00;;;;2078202;28;20213;-48
2022/05/07 05:05:56;;;;;;;8.10;7.40;;;;;20.80;101135.00;;;;2077821;28;20213;-47